Pittsburg, CA (94565)

9:38 AM PST on February 12, 2016 (GMT -0800)
Diablo Valley Radio Controllers | | Change Station
CLOSE
Current Station
Personal Weather Station
Location: Pittsburg, CA
Elevation: 180 ft
Nearby Weather Stations

Elev 180 ft 38.01 °N, 121.91 °W | Updated 7 minutes ago

Clear
Clear
62.8 °F
Feels Like 62.8 °F
N
4.0
Wind Variable Wind from SW
Gusts 7.0 mph

Today
High -- | Low -- °F
--% Chance of Precip.
Yesterday
High -- | Low -- °F
Precip. -- in
Pressure 30.19 in
Visibility 10.0 miles
Clouds Clear
Dew Point 49 °F
Humidity 62%
Rainfall 0.00 in
Snow Depth Not available.
7:01 AM 5:42 PM
Waxing Crescent, 22% visible
METAR KCCR 121653Z 00000KT 10SM CLR 12/08 A3023 RMK AO2 SLP223 T01220078
Pressure 30.19 in
Visibility 10.0 miles
Clouds Clear
Dew Point 49 °F
Humidity 62%
Rainfall 0.00 in
Snow Depth Not available.
7:01 AM 5:42 PM
Waxing Crescent, 22% visible
METAR KCCR 121653Z 00000KT 10SM CLR 12/08 A3023 RMK AO2 SLP223 T01220078

10-Day Weather Forecast

Almanac

Astronomy

Feb. 12, 2016 Rise Set
Actual Time
Civil Twilight
Nautical Twilight
Astronomical Twilight
Moon
Length of Visible Light
Length of Day
Tomorrow will be .
, % of the Moon is Illuminated

Today's Extremes

State Highs State Lows

Community

WunderPhotos

Upload Photos

1,892,354 photos uploaded!

WunderBlog® & News

Nearby

Air Quality

  Air Quality AQ Index Pollutant
Not available.

Snow Depth

Station Depth Elevation

Earthquake Activity

City Distance Mag. Time & Date
Minimum magnitude displayed is 2.5.

Coastal Water Temperatures

Place Temperature

Stations

Nearby Weather Stations

Station Location Temp. Windchill Dew Point Humidity Wind Precip. Elev Updated Type
                   

Watches & Warnings

There are currently no watches in effect.